Time;durP1;ratioP1;P1;durP2;ratioP2;P2;SDS_P1;SDS_P2;PMS_P1;PMS_P2;Temp;Humidity;BMP_temperature;BMP_pressure;BME280_temperature;BME280_humidity;BME280_pressure;Samples;Min_cycle;Max_cycle;Signal;HPM_P1;HPM_P2
2022/07/23 00:00:56;;;;;;;7.30;4.30;;;28.20;52.20;;;28.65;35.69;98602.81;5045620;27;109562;-76
2022/07/23 00:03:23;;;;;;;5.60;4.33;;;28.20;52.30;;;28.57;35.68;98579.41;5055577;27;108895;-76
2022/07/23 00:05:49;;;;;;;6.83;4.27;;;28.10;52.30;;;28.52;36.01;98594.16;5034520;27;123355;-77
2022/07/23 00:08:16;;;;;;;5.57;4.40;;;28.10;52.50;;;28.46;36.24;98584.53;5037325;27;124550;-76
2022/07/23 00:10:43;;;;;;;4.90;4.17;;;28.00;52.60;;;28.42;36.45;98600.81;5033900;28;111178;-76
2022/07/23 00:13:09;;;;;;;4.73;3.83;;;28.00;52.90;;;28.36;36.39;98588.38;5049840;27;109745;-76
2022/07/23 00:15:36;;;;;;;4.30;3.90;;;27.90;53.10;;;28.31;36.57;98583.22;5057422;27;124194;-76
2022/07/23 00:18:03;;;;;;;4.77;3.90;;;27.80;53.10;;;28.24;36.57;98589.84;5040448;27;124369;-76
2022/07/23 00:20:29;;;;;;;5.90;4.10;;;27.80;53.30;;;28.17;36.62;98587.16;5053650;27;109216;-76
2022/07/23 00:22:56;;;;;;;7.00;4.60;;;27.70;53.40;;;28.11;36.79;98586.84;5052314;27;108022;-76
2022/07/23 00:25:23;;;;;;;5.13;4.00;;;27.70;53.50;;;28.06;36.94;98578.84;5046902;27;123308;-76
2022/07/23 00:27:50;;;;;;;6.10;4.27;;;27.60;53.60;;;28.01;36.90;98581.38;5034023;27;123117;-76
2022/07/23 00:30:16;;;;;;;4.97;4.47;;;27.60;53.80;;;27.95;37.21;98581.09;5034124;28;109219;-76
2022/07/23 00:32:53;;;;;;;5.60;4.13;;;27.50;53.90;;;27.86;37.35;98578.84;5034135;27;109058;-76
2022/07/23 00:35:21;;;;;;;5.00;3.90;;;27.40;54.20;;;27.80;37.62;98565.53;5032748;27;124631;-76
2022/07/23 00:37:48;;;;;;;8.17;4.67;;;27.40;54.50;;;27.75;37.76;98570.50;5033742;27;124140;-76
2022/07/23 00:40:15;;;;;;;4.37;3.80;;;27.30;54.60;;;27.72;38.17;98570.53;5042567;27;108397;-76
2022/07/23 00:42:42;;;;;;;3.47;3.13;;;27.30;54.80;;;27.69;38.46;98560.06;5053997;27;108851;-76
2022/07/23 00:45:09;;;;;;;4.30;3.83;;;27.20;55.20;;;27.65;38.90;98560.13;5035574;27;124069;-76
2022/07/23 00:47:36;;;;;;;3.90;3.47;;;27.30;56.00;;;27.62;39.12;98554.50;5034215;27;123925;-76
2022/07/23 00:50:05;;;;;;;4.63;3.40;;;27.20;56.40;;;27.54;39.57;98534.00;5034201;28;109154;-76
2022/07/23 00:52:33;;;;;;;4.50;3.80;;;27.20;56.70;;;27.50;39.99;98538.91;5040557;27;109133;-76
2022/07/23 00:55:00;;;;;;;4.70;4.20;;;27.10;57.10;;;27.44;40.45;98538.63;5022447;28;122809;-76
2022/07/23 00:57:26;;;;;;;4.40;4.00;;;27.00;57.80;;;27.34;40.29;98538.81;5037064;27;123048;-76
2022/07/23 00:59:53;;;;;;;3.40;3.10;;;26.90;58.10;;;27.23;40.89;98550.34;5048978;27;109716;-76
2022/07/23 01:02:20;;;;;;;6.73;3.43;;;26.80;58.60;;;27.13;41.06;98557.75;5044034;27;109955;-76
2022/07/23 01:04:46;;;;;;;4.30;3.60;;;26.70;59.10;;;27.01;41.10;98564.84;5054270;27;123933;-76
2022/07/23 01:07:13;;;;;;;4.27;3.80;;;26.60;59.30;;;26.93;41.65;98563.34;5050882;27;122782;-76
2022/07/23 01:09:40;;;;;;;4.23;3.83;;;26.50;59.30;;;26.84;41.75;98552.56;5048762;27;108411;-76
2022/07/23 01:12:07;;;;;;;3.93;3.57;;;26.50;59.70;;;26.77;41.72;98547.00;5035196;27;108103;-76
2022/07/23 01:14:34;;;;;;;4.80;3.70;;;26.40;59.80;;;26.70;41.67;98552.75;5040311;27;123798;-76
2022/07/23 01:17:00;;;;;;;4.93;4.47;;;26.30;60.00;;;26.63;42.13;98558.53;5053392;27;123669;-76
2022/07/23 01:19:27;;;;;;;4.37;3.63;;;26.20;60.20;;;26.57;42.25;98509.22;5044965;27;108732;-76
2022/07/23 01:21:57;;;;;;;4.27;3.87;;;26.20;60.40;;;26.54;42.21;98504.41;5041090;27;108927;-76
2022/07/23 01:24:24;;;;;;;4.70;3.50;;;26.10;60.30;;;26.56;42.18;98528.25;5048730;27;124146;-76
2022/07/23 01:26:51;;;;;;;5.27;3.90;;;26.20;60.50;;;26.62;42.37;98528.56;5037914;27;123580;-76
2022/07/23 01:29:18;;;;;;;3.93;3.50;;;26.20;60.80;;;26.66;42.11;98541.47;5052353;27;109342;-76
2022/07/23 01:31:44;;;;;;;4.60;4.20;;;26.20;61.10;;;26.64;42.61;98537.47;5043349;27;109118;-76
2022/07/23 01:34:11;;;;;;;4.33;3.83;;;26.20;61.30;;;26.62;42.66;98522.91;5047619;27;124271;-76
2022/07/23 01:36:38;;;;;;;5.50;3.63;;;26.20;61.30;;;26.60;42.23;98503.53;5047768;27;124233;-76
2022/07/23 01:39:06;;;;;;;4.43;4.03;;;26.20;61.40;;;26.58;42.65;98500.31;5034356;27;108441;-76
2022/07/23 01:41:34;;;;;;;4.30;3.90;;;26.10;61.40;;;26.60;42.08;98497.06;5052668;27;108500;-76
2022/07/23 01:44:01;;;;;;;4.70;3.73;;;26.20;61.50;;;26.63;42.44;98496.19;5049658;27;123842;-76
2022/07/23 01:46:28;;;;;;;3.97;3.63;;;26.20;61.40;;;26.62;42.23;98518.03;5051654;27;124146;-77
2022/07/23 01:48:54;;;;;;;6.23;3.97;;;26.20;61.50;;;26.58;42.68;98510.84;5052334;27;110707;-77
2022/07/23 01:51:21;;;;;;;4.37;3.80;;;26.20;61.80;;;26.59;42.79;98506.78;5043850;27;110012;-77
2022/07/23 01:53:47;;;;;;;4.30;3.87;;;26.20;61.90;;;26.62;42.17;98511.56;5050085;27;123303;-77
2022/07/23 01:56:15;;;;;;;4.10;3.70;;;26.20;61.80;;;26.64;42.60;98497.78;5041228;27;123763;-77
2022/07/23 01:58:41;;;;;;;5.27;4.03;;;26.20;61.90;;;26.66;42.19;98503.84;5032738;27;109868;-76
2022/07/23 02:01:08;;;;;;;4.20;3.43;;;26.20;61.90;;;26.69;42.34;98542.66;5034043;27;108765;-76
2022/07/23 02:03:34;;;;;;;3.90;3.40;;;26.20;61.90;;;26.69;42.25;98553.19;5033292;27;123775;-76
2022/07/23 02:06:01;;;;;;;3.40;3.10;;;26.20;61.90;;;26.68;42.67;98558.06;5047848;27;123025;-76
2022/07/23 02:08:27;;;;;;;4.97;3.90;;;26.20;62.00;;;26.68;42.47;98555.22;5048748;27;109211;-76
2022/07/23 02:10:53;;;;;;;3.80;3.47;;;26.20;62.10;;;26.67;42.40;98551.56;5052979;27;108912;-76
2022/07/23 02:13:20;;;;;;;3.90;3.13;;;26.20;62.10;;;26.68;42.41;98549.56;5036254;27;124655;-76
2022/07/23 02:15:48;;;;;;;3.80;3.27;;;26.20;62.10;;;26.67;42.60;98548.75;5038043;27;123853;-77
2022/07/23 02:18:14;;;;;;;4.40;3.67;;;26.20;62.10;;;26.68;42.18;98549.56;5036754;27;109411;-76
2022/07/23 02:20:42;;;;;;;3.77;3.40;;;26.20;62.10;;;26.67;41.98;98548.75;5033865;27;108945;-76
2022/07/23 02:23:08;;;;;;;6.83;4.40;;;26.20;62.10;;;26.66;42.19;98552.81;5045918;27;124557;-76
2022/07/23 02:25:35;;;;;;;4.20;3.80;;;26.20;62.10;;;26.68;42.03;98566.56;5040943;27;123881;-76
2022/07/23 02:28:02;;;;;;;5.17;4.07;;;26.20;62.10;;;26.66;42.49;98583.19;5033447;27;108371;-76
2022/07/23 02:30:29;;;;;;;4.53;3.90;;;26.20;62.20;;;26.63;42.53;98593.34;5034863;27;106881;-76
2022/07/23 02:32:55;;;;;;;5.07;3.87;;;26.20;62.40;;;26.62;42.55;98596.59;5031511;27;123620;-76
2022/07/23 02:35:22;;;;;;;4.33;3.93;;;26.20;62.60;;;26.61;42.52;98590.13;5031186;27;124271;-76
2022/07/23 02:37:49;;;;;;;3.90;3.50;;;26.20;62.70;;;26.63;42.55;98603.88;5047867;27;109978;-76
2022/07/23 02:40:15;;;;;;;3.87;3.50;;;26.20;62.90;;;26.64;42.76;98608.31;5035084;27;109582;-76
2022/07/23 02:42:42;;;;;;;4.77;4.20;;;26.20;63.00;;;26.63;42.88;98616.03;5035166;27;124395;-76
2022/07/23 02:45:09;;;;;;;4.60;3.73;;;26.20;63.10;;;26.64;42.50;98619.66;5031681;27;123328;-76
2022/07/23 02:47:35;;;;;;;3.47;3.10;;;26.20;63.30;;;26.65;42.61;98632.59;5045975;27;108188;-76
2022/07/23 02:50:05;;;;;;;4.90;3.97;;;26.20;63.20;;;26.64;42.97;98631.00;5037565;27;108755;-77
2022/07/23 02:52:31;;;;;;;4.33;3.50;;;26.20;63.20;;;26.63;42.98;98632.22;5051385;27;124720;-77
2022/07/23 02:54:58;;;;;;;5.90;4.03;;;26.20;63.20;;;26.63;42.92;98644.38;5054333;27;123772;-77
2022/07/23 02:57:24;;;;;;;4.57;4.10;;;26.20;63.30;;;26.61;42.94;98646.00;5042477;27;109633;-76
2022/07/23 02:59:50;;;;;;;4.50;3.77;;;26.20;63.40;;;26.58;42.94;98629.88;5052509;27;109003;-76
2022/07/23 03:02:17;;;;;;;3.60;3.30;;;26.10;63.40;;;26.53;43.13;98633.97;5052680;27;123224;-77
2022/07/23 03:04:44;;;;;;;4.30;3.63;;;26.10;63.60;;;26.49;42.72;98643.69;5050222;27;123846;-76
2022/07/23 03:07:10;;;;;;;3.80;3.50;;;26.00;63.70;;;26.46;43.02;98639.69;5051662;27;109514;-76
2022/07/23 03:09:37;;;;;;;3.93;3.53;;;26.00;63.80;;;26.45;43.36;98650.22;5039523;27;108884;-76
2022/07/23 03:12:04;;;;;;;5.53;3.70;;;26.00;64.10;;;26.45;43.14;98650.22;5027744;27;125226;-76
2022/07/23 03:14:30;;;;;;;5.30;4.20;;;26.00;64.30;;;26.45;43.37;98650.22;5034833;27;123795;-76
2022/07/23 03:16:57;;;;;;;4.67;4.20;;;26.00;64.40;;;26.45;43.58;98655.88;5032932;27;109057;-77
2022/07/23 03:19:23;;;;;;;4.30;3.60;;;26.00;64.60;;;26.41;43.26;98657.97;5033115;27;109107;-77
2022/07/23 03:21:49;;;;;;;11.20;3.70;;;26.00;64.70;;;26.40;43.70;98652.72;5046971;27;124118;-76
2022/07/23 03:24:17;;;;;;;4.33;3.20;;;25.90;64.80;;;26.38;43.41;98652.31;5047987;27;124018;-76
2022/07/23 03:26:44;;;;;;;3.97;3.50;;;25.90;64.80;;;26.37;43.49;98648.69;5050414;27;110579;-75
2022/07/23 03:29:11;;;;;;;4.70;4.00;;;25.90;64.90;;;26.38;43.80;98643.84;5049773;27;109901;-76
2022/07/23 03:31:37;;;;;;;5.63;4.50;;;25.90;65.10;;;26.38;43.87;98635.34;5042175;27;124545;-76
2022/07/23 03:34:04;;;;;;;4.43;4.03;;;25.90;65.10;;;26.38;43.62;98627.66;5032052;27;123797;-75
2022/07/23 03:36:30;;;;;;;5.00;4.20;;;25.90;65.10;;;26.37;43.35;98640.19;5034957;27;108860;-76
2022/07/23 03:38:57;;;;;;;4.50;4.07;;;25.90;65.20;;;26.35;43.70;98622.81;5050033;27;108683;-75
2022/07/23 03:41:23;;;;;;;4.40;3.80;;;25.90;65.20;;;26.34;43.85;98635.38;5051387;27;124689;-77
2022/07/23 03:43:50;;;;;;;3.97;3.57;;;25.90;65.30;;;26.35;43.84;98627.69;5031708;27;122856;-77
2022/07/23 03:46:16;;;;;;;4.70;4.10;;;25.90;65.40;;;26.35;43.73;98628.47;5031508;28;109029;-76
2022/07/23 03:48:43;;;;;;;4.40;3.80;;;25.90;65.30;;;26.34;43.46;98632.56;5047561;27;108894;-76
2022/07/23 03:51:09;;;;;;;4.67;3.90;;;25.90;65.20;;;26.31;43.64;98632.59;5050460;27;124133;-76
2022/07/23 03:53:36;;;;;;;5.27;4.43;;;25.90;65.20;;;26.29;43.40;98632.22;5036074;27;123958;-76
2022/07/23 03:56:03;;;;;;;5.10;3.87;;;25.90;65.30;;;26.27;43.31;98629.78;5036183;27;108539;-76
2022/07/23 03:58:29;;;;;;;4.43;4.03;;;25.80;65.30;;;26.28;43.80;98633.44;5041206;27;108789;-77
2022/07/23 04:00:55;;;;;;;6.00;4.30;;;25.80;65.50;;;26.29;43.45;98635.06;5040982;27;122037;-76
2022/07/23 04:03:22;;;;;;;4.90;3.73;;;25.80;65.50;;;26.27;43.72;98637.50;5049191;27;123124;-77
2022/07/23 04:05:48;;;;;;;5.57;4.20;;;25.80;65.50;;;26.28;43.35;98642.75;5046244;27;109102;-76
2022/07/23 04:08:15;;;;;;;5.63;3.80;;;25.80;65.60;;;26.27;43.71;98649.63;5053465;27;109344;-76
2022/07/23 04:10:42;;;;;;;4.23;3.63;;;25.80;65.50;;;26.27;43.65;98649.63;5053079;27;124057;-76
2022/07/23 04:13:09;;;;;;;4.77;3.20;;;25.80;65.50;;;26.28;43.64;98651.25;5036942;27;123919;-76
2022/07/23 04:15:37;;;;;;;5.43;4.17;;;25.80;65.50;;;26.27;43.26;98654.50;5053471;27;109237;-76
2022/07/23 04:18:04;;;;;;;4.83;4.30;;;25.80;65.50;;;26.26;43.20;98650.84;5058116;27;109900;-76
2022/07/23 04:20:30;;;;;;;5.13;3.80;;;25.80;65.50;;;26.22;43.36;98652.91;5054437;27;124180;-76
2022/07/23 04:22:57;;;;;;;4.60;3.40;;;25.70;65.60;;;26.21;43.88;98651.31;5054218;27;123849;-76
2022/07/23 04:25:23;;;;;;;5.33;4.60;;;25.70;65.70;;;26.18;43.88;98658.63;5037521;27;109278;-76
2022/07/23 04:27:50;;;;;;;4.53;3.90;;;25.70;65.90;;;26.14;43.80;98663.53;5054752;27;109545;-76
2022/07/23 04:30:16;;;;;;;6.37;4.10;;;25.70;66.10;;;26.10;43.57;98667.63;5036425;27;124451;-76
2022/07/23 04:32:43;;;;;;;5.63;4.23;;;25.70;66.20;;;26.04;44.23;98658.00;5050763;27;124257;-76
2022/07/23 04:35:09;;;;;;;4.20;3.80;;;25.60;66.40;;;26.00;44.28;98658.81;5041228;27;109483;-76
2022/07/23 04:37:36;;;;;;;4.23;3.83;;;25.50;66.40;;;25.97;44.27;98665.31;5033961;28;109115;-75
2022/07/23 04:40:03;;;;;;;5.43;4.67;;;25.50;66.60;;;25.98;44.03;98661.28;5032175;28;124265;-76
2022/07/23 04:42:29;;;;;;;4.70;4.23;;;25.50;66.70;;;25.92;44.17;98660.09;5049179;27;123979;-75
2022/07/23 04:44:56;;;;;;;4.10;3.60;;;25.50;66.80;;;25.90;44.24;98651.25;5051585;27;109360;-76
2022/07/23 04:47:22;;;;;;;4.67;4.23;;;25.40;66.90;;;25.91;44.27;98650.00;5050847;27;109023;-76
2022/07/23 04:49:49;;;;;;;4.00;3.63;;;25.40;67.00;;;25.91;44.37;98655.69;5032157;27;124120;-76
2022/07/23 04:52:15;;;;;;;4.87;4.37;;;25.40;67.00;;;25.92;44.37;98662.13;5038875;27;123626;-76
2022/07/23 04:54:42;;;;;;;6.93;4.50;;;25.50;67.20;;;25.94;44.48;98654.84;5044424;27;109615;-76
2022/07/23 04:57:08;;;;;;;4.50;3.73;;;25.50;67.30;;;25.97;44.42;98659.66;5037416;27;108679;-76
2022/07/23 04:59:35;;;;;;;4.93;4.30;;;25.50;67.20;;;25.99;44.07;98662.88;5036521;27;123893;-76
2022/07/23 05:02:01;;;;;;;4.57;4.03;;;25.50;67.30;;;25.99;44.23;98662.88;5049249;27;123925;-76
2022/07/23 05:04:28;;;;;;;5.20;4.40;;;25.50;67.10;;;25.99;43.92;98665.72;5038316;27;110138;-75
2022/07/23 05:06:54;;;;;;;6.17;3.87;;;25.50;67.10;;;25.99;44.08;98662.88;5043006;27;109893;-76
2022/07/23 05:09:21;;;;;;;6.07;4.77;;;25.50;67.20;;;26.00;44.09;98664.47;5042558;27;124106;-76
2022/07/23 05:11:47;;;;;;;4.93;3.90;;;25.50;67.10;;;26.00;43.85;98655.19;5042260;27;123915;-75
2022/07/23 05:14:14;;;;;;;4.47;4.07;;;25.50;67.10;;;26.01;44.18;98653.97;5043649;27;108492;-77
2022/07/23 05:16:40;;;;;;;4.47;4.07;;;25.50;67.30;;;26.01;43.84;98659.63;5040182;27;108733;-76
2022/07/23 05:19:07;;;;;;;5.00;4.37;;;25.50;67.30;;;26.02;44.42;98666.91;5039670;27;124316;-76
2022/07/23 05:21:33;;;;;;;5.10;3.30;;;25.50;67.40;;;26.05;44.33;98665.25;5038453;27;123845;-76
2022/07/23 05:24:00;;;;;;;5.03;4.07;;;25.50;67.40;;;26.06;43.86;98656.34;5032519;28;109088;-76
2022/07/23 05:26:27;;;;;;;4.90;4.10;;;25.50;67.40;;;26.09;43.74;98657.53;5036006;27;109568;-76
2022/07/23 05:28:53;;;;;;;4.50;3.93;;;25.60;67.50;;;26.10;44.27;98668.44;5050070;27;124278;-75
2022/07/23 05:31:20;;;;;;;4.93;4.10;;;25.60;67.50;;;26.12;43.86;98670.84;5052525;27;124338;-75
2022/07/23 05:33:46;;;;;;;5.67;5.07;;;25.60;67.60;;;26.18;44.06;98672.00;5043043;27;108961;-74
2022/07/23 05:36:12;;;;;;;4.77;4.10;;;25.60;67.50;;;26.25;44.01;98674.75;5038687;27;109730;-75
2022/07/23 05:38:39;;;;;;;4.60;4.20;;;25.70;67.60;;;26.29;43.80;98684.00;5051307;27;124248;-75
2022/07/23 05:41:05;;;;;;;5.00;4.13;;;25.70;67.50;;;26.32;43.45;98679.53;5040003;27;123746;-75
2022/07/23 05:43:32;;;;;;;5.33;3.87;;;25.70;67.40;;;26.32;43.83;98690.84;5046313;27;109006;-74
2022/07/23 05:45:58;;;;;;;5.20;4.40;;;25.70;67.30;;;26.32;43.44;98691.66;5034369;27;109018;-74
2022/07/23 05:48:25;;;;;;;5.63;4.70;;;25.70;67.30;;;26.34;43.35;98706.22;5048782;27;124235;-74
2022/07/23 05:50:52;;;;;;;5.90;4.53;;;25.80;67.30;;;26.33;43.41;98701.78;5055845;27;122537;-74
2022/07/23 05:53:18;;;;;;;5.90;4.80;;;25.80;67.40;;;26.32;44.00;98702.19;5054673;27;109679;-73
2022/07/23 05:55:45;;;;;;;5.27;4.77;;;25.80;67.50;;;26.34;43.53;98700.53;5032799;27;109687;-74
2022/07/23 05:58:11;;;;;;;8.63;5.17;;;25.80;67.50;;;26.36;43.71;98708.63;5049740;27;124035;-74
2022/07/23 06:00:38;;;;;;;5.40;4.90;;;25.80;67.30;;;26.38;43.57;98712.66;5042727;27;123649;-74
2022/07/23 06:03:04;;;;;;;4.57;4.17;;;25.80;67.00;;;26.38;43.11;98706.97;5046467;27;108772;-74
2022/07/23 06:05:30;;;;;;;6.20;4.93;;;25.90;67.60;;;26.36;43.44;98715.09;5041330;27;109000;-74
2022/07/23 06:07:57;;;;;;;4.97;4.47;;;25.80;66.80;;;26.35;43.04;98710.63;5039854;27;124401;-75
2022/07/23 06:10:23;;;;;;;8.10;5.20;;;25.90;66.80;;;26.31;43.22;98707.06;5040257;27;123849;-75
2022/07/23 06:12:50;;;;;;;6.77;5.03;;;25.80;66.70;;;26.30;43.20;98713.13;5040710;27;109193;-75
2022/07/23 06:15:16;;;;;;;4.80;3.90;;;25.80;66.70;;;26.31;43.23;98700.59;5041784;27;109379;-75
2022/07/23 06:17:43;;;;;;;3.90;3.50;;;25.90;66.70;;;26.33;43.41;98687.63;5042272;27;125097;-75
2022/07/23 06:20:10;;;;;;;5.27;4.77;;;25.90;66.90;;;26.36;43.49;98678.25;5036824;27;124269;-75
2022/07/23 06:22:37;;;;;;;8.67;4.83;;;25.90;67.00;;;26.38;43.09;98683.50;5045263;27;109158;-76
2022/07/23 06:25:05;;;;;;;9.80;4.30;;;25.90;67.00;;;26.39;43.73;98690.78;5042985;27;108987;-75
2022/07/23 06:27:31;;;;;;;5.30;4.30;;;25.80;67.30;;;26.41;43.73;98689.13;5041954;27;123662;-75
2022/07/23 06:29:58;;;;;;;8.73;4.50;;;25.80;67.30;;;26.43;43.85;98692.34;5040566;27;124465;-74
2022/07/23 06:32:24;;;;;;;5.73;5.23;;;25.90;67.60;;;26.48;43.21;98702.41;5039639;27;109107;-74
2022/07/23 06:34:51;;;;;;;5.30;4.53;;;25.90;67.50;;;26.52;43.16;98708.88;5042690;27;108180;-75
2022/07/23 06:37:17;;;;;;;6.63;4.40;;;25.90;67.50;;;26.55;42.90;98710.06;5040710;27;126186;-75
2022/07/23 06:39:44;;;;;;;6.30;5.03;;;26.00;67.30;;;26.55;43.02;98710.88;5040876;27;124040;-75
2022/07/23 06:42:11;;;;;;;7.53;4.77;;;26.00;67.30;;;26.57;43.00;98718.94;5037263;27;110223;-76
2022/07/23 06:44:38;;;;;;;4.90;4.40;;;26.00;67.30;;;26.60;43.18;98718.91;5039251;27;109805;-76
2022/07/23 06:47:05;;;;;;;5.50;4.80;;;26.00;67.50;;;26.65;43.22;98717.63;5041416;27;124665;-76
2022/07/23 06:49:31;;;;;;;5.27;4.23;;;26.10;67.40;;;26.69;43.17;98726.91;5040473;27;123724;-76
2022/07/23 06:51:58;;;;;;;5.17;4.60;;;26.10;67.40;;;26.73;42.99;98738.97;5044106;27;109682;-75
2022/07/23 06:54:24;;;;;;;5.70;4.70;;;26.10;67.30;;;26.77;42.57;98738.94;5042526;27;109178;-76
2022/07/23 06:56:50;;;;;;;5.53;4.90;;;26.20;67.00;;;26.78;42.96;98737.72;5041707;27;124029;-76
2022/07/23 06:59:17;;;;;;;5.07;4.33;;;26.30;66.80;;;26.80;42.67;98747.41;5039912;27;123931;-74
2022/07/23 07:01:43;;;;;;;4.77;4.37;;;26.30;66.50;;;26.83;42.73;98752.22;5041516;27;109188;-74
2022/07/23 07:04:10;;;;;;;5.23;4.60;;;26.30;66.30;;;26.85;42.25;98754.66;5040100;27;109373;-74
2022/07/23 07:06:36;;;;;;;6.33;4.40;;;26.30;66.20;;;26.83;42.28;98754.25;5038668;27;123277;-75
2022/07/23 07:09:03;;;;;;;5.80;4.60;;;26.30;65.90;;;26.77;41.89;98762.44;5040681;27;123946;-75
2022/07/23 07:11:30;;;;;;;8.10;5.10;;;26.30;65.50;;;26.71;42.34;98769.00;5039818;27;109187;-75
2022/07/23 07:13:56;;;;;;;5.43;4.90;;;26.20;65.50;;;26.63;42.60;98786.06;5038742;27;108671;-75
2022/07/23 07:16:23;;;;;;;8.90;4.80;;;26.10;65.60;;;26.55;42.44;98761.88;5038225;27;124727;-75
2022/07/23 07:18:49;;;;;;;6.67;5.50;;;26.00;65.60;;;26.50;42.59;98767.16;5039023;27;123805;-75
2022/07/23 07:21:16;;;;;;;4.73;4.30;;;26.00;66.00;;;26.43;43.02;98751.81;5038799;27;109322;-76
2022/07/23 07:23:42;;;;;;;5.27;4.63;;;26.00;66.10;;;26.40;43.12;98743.38;5042971;27;108852;-75
2022/07/23 07:26:09;;;;;;;6.47;4.53;;;26.00;66.50;;;26.37;43.06;98730.84;5039320;27;124166;-75
2022/07/23 07:28:36;;;;;;;7.87;5.60;;;26.00;66.70;;;26.32;43.12;98739.00;5039392;27;123858;-75
2022/07/23 07:31:02;;;;;;;5.20;4.27;;;25.90;66.80;;;26.31;43.07;98760.88;5046436;27;110298;-75
2022/07/23 07:33:29;;;;;;;6.03;4.40;;;25.90;67.00;;;26.31;43.38;98754.41;5041786;27;109924;-75
2022/07/23 07:35:55;;;;;;;8.17;4.70;;;25.80;67.10;;;26.31;43.86;98758.03;5043814;27;124237;-77
2022/07/23 07:38:22;;;;;;;5.47;4.63;;;25.90;67.60;;;26.31;44.21;98763.72;5040092;27;123751;-76
2022/07/23 07:40:48;;;;;;;6.67;5.13;;;25.80;67.80;;;26.32;44.33;98785.13;5040068;27;109226;-75
2022/07/23 07:43:15;;;;;;;7.10;4.43;;;25.90;68.40;;;26.26;44.52;98778.31;5044261;27;109314;-75
2022/07/23 07:45:41;;;;;;;6.50;4.90;;;25.80;69.10;;;26.17;45.23;98803.50;5048517;27;123238;-75
2022/07/23 07:48:07;;;;;;;5.50;4.70;;;25.80;69.60;;;26.09;45.30;98799.94;5046082;27;123753;-76
2022/07/23 07:50:34;;;;;;;7.20;5.33;;;25.70;70.80;;;26.00;45.68;98811.69;5043424;27;109256;-75
2022/07/23 07:53:01;;;;;;;5.67;4.77;;;25.60;70.50;;;25.96;45.91;98821.47;5044095;27;108414;-73
2022/07/23 07:55:28;;;;;;;5.97;4.90;;;25.50;70.70;;;25.93;45.91;98825.94;5040013;27;124950;-76
2022/07/23 07:57:55;;;;;;;5.60;5.10;;;25.50;70.60;;;25.91;45.34;98828.38;5053014;27;123820;-76
2022/07/23 08:00:21;;;;;;;4.97;4.30;;;25.40;70.60;;;25.92;45.42;98835.63;5042478;27;109175;-75
2022/07/23 08:02:50;;;;;;;4.60;4.20;;;25.50;70.80;;;25.93;45.37;98828.75;5040081;27;108330;-75
2022/07/23 08:05:26;;;;;;;4.77;4.23;;;25.40;70.70;;;25.97;45.25;98838.03;5051421;27;123028;-75
2022/07/23 08:07:53;;;;;;;7.07;4.97;;;25.50;70.80;;;25.99;45.62;98832.75;5048072;27;123760;-75
2022/07/23 08:10:20;;;;;;;5.17;4.60;;;25.50;70.80;;;26.04;45.65;98839.22;5040267;27;109239;-76
2022/07/23 08:12:50;;;;;;;5.20;4.10;;;25.50;70.90;;;26.07;45.73;98835.53;5045905;27;109102;-75
2022/07/23 08:15:19;;;;;;;5.37;4.50;;;25.50;70.90;;;26.16;45.12;98841.53;5042386;27;124119;-75
2022/07/23 08:17:47;;;;;;;5.20;4.70;;;25.60;71.10;;;26.22;45.34;98843.50;5043345;27;124310;-75
2022/07/23 08:20:17;;;;;;;5.60;4.80;;;25.70;71.10;;;26.20;45.65;98842.31;5041637;27;110080;-74
2022/07/23 08:22:48;;;;;;;4.70;4.30;;;25.70;71.10;;;26.14;45.09;98826.97;5040331;27;109979;-75
2022/07/23 08:25:27;;;;;;;5.97;4.73;;;25.70;70.90;;;26.13;45.58;98822.53;5040406;27;124499;-75
2022/07/23 08:27:54;;;;;;;4.90;4.40;;;25.70;70.90;;;26.14;45.14;98819.31;5035980;27;124026;-71
2022/07/23 08:30:22;;;;;;;6.53;4.43;;;25.70;71.00;;;26.16;45.55;98818.88;5033628;28;109067;-74
2022/07/23 08:33:01;;;;;;;5.00;4.13;;;25.70;70.90;;;26.15;45.17;98811.59;5036729;27;109571;-74
2022/07/23 08:35:30;;;;;;;5.30;4.50;;;25.70;71.00;;;26.20;45.70;98802.66;5039349;27;124551;-75
2022/07/23 08:37:58;;;;;;;4.93;4.00;;;25.70;71.20;;;26.27;45.17;98811.06;5044909;27;123830;-75
2022/07/23 08:40:27;;;;;;;6.43;4.73;;;25.80;71.20;;;26.31;44.61;98814.69;5047419;27;109074;-77
2022/07/23 08:42:54;;;;;;;5.67;4.53;;;25.80;70.80;;;26.39;45.17;98804.91;5037212;27;108868;-76
2022/07/23 08:45:24;;;;;;;4.43;3.70;;;25.80;70.90;;;26.50;45.10;98818.97;5032865;27;123150;-75
2022/07/23 08:47:58;;;;;;;4.80;3.70;;;25.90;70.90;;;26.64;44.57;98815.22;5032535;27;122851;-76
2022/07/23 08:50:25;;;;;;;6.20;4.20;;;26.00;70.80;;;26.79;44.39;98804.53;5043312;27;108517;-76
2022/07/23 08:52:53;;;;;;;7.50;5.23;;;26.10;70.60;;;26.92;43.68;98810.44;5037252;27;109260;-75
2022/07/23 08:55:23;;;;;;;8.83;5.03;;;26.20;70.10;;;26.99;43.52;98813.22;5055921;27;124081;-75
2022/07/23 08:57:52;;;;;;;5.97;5.30;;;26.30;69.40;;;27.01;42.57;98797.38;5044739;27;123914;-77
2022/07/23 09:00:20;;;;;;;5.40;4.90;;;26.30;68.80;;;27.04;42.75;98801.41;5054013;27;108515;-76
2022/07/23 09:02:49;;;;;;;6.63;5.40;;;26.30;68.80;;;27.10;43.10;98802.53;5056427;27;109834;-76
2022/07/23 09:05:16;;;;;;;5.60;4.90;;;26.40;68.70;;;27.15;42.29;98802.06;5053418;27;124096;-74
2022/07/23 09:08:09;;;;;;;7.83;5.27;;;26.40;68.20;;;27.20;42.49;98807.31;5036676;27;122838;-75
2022/07/23 09:10:48;;;;;;;6.07;4.40;;;26.50;68.00;;;27.31;41.99;98799.44;5053128;27;110133;-75
2022/07/23 09:13:43;;;;;;;7.00;5.40;;;26.60;67.60;;;27.39;41.94;98803.00;5052727;27;110427;-75
2022/07/23 09:16:14;;;;;;;6.80;4.97;;;26.70;67.20;;;27.46;41.53;98791.56;5053698;27;124189;-75
2022/07/23 09:18:47;;;;;;;7.17;4.73;;;26.80;67.70;;;27.57;41.28;98797.09;5048480;27;124020;-75
2022/07/23 09:21:24;;;;;;;5.40;4.37;;;26.90;66.30;;;27.67;41.26;98801.81;5033585;27;109082;-75
2022/07/23 09:24:05;;;;;;;5.77;4.43;;;26.90;66.30;;;27.79;41.10;98789.03;5031697;28;109884;-75
2022/07/23 09:26:47;;;;;;;6.03;4.77;;;27.10;66.20;;;27.92;40.85;98786.44;5032126;27;124014;-75
2022/07/23 09:29:25;;;;;;;5.57;4.23;;;27.20;65.80;;;28.04;39.80;98779.34;5032890;27;124245;-75
2022/07/23 09:31:56;;;;;;;6.03;4.30;;;27.30;64.70;;;28.15;39.54;98779.97;5032960;27;108957;-75
2022/07/23 09:34:32;;;;;;;6.30;5.13;;;27.40;64.10;;;28.23;39.66;98772.91;5040221;27;109040;-75
2022/07/23 09:37:19;;;;;;;5.37;4.40;;;27.50;63.80;;;28.29;39.49;98778.91;5052278;27;124501;-75
2022/07/23 09:39:48;;;;;;;6.07;4.80;;;27.60;63.10;;;28.37;38.98;98780.38;5051971;27;122760;-75
2022/07/23 09:42:21;;;;;;;5.40;4.90;;;27.70;62.80;;;28.40;38.77;98779.53;5051283;27;109237;-75
2022/07/23 09:44:50;;;;;;;6.30;4.53;;;27.70;62.50;;;28.48;38.81;98775.34;5044020;27;108689;-75
2022/07/23 09:47:18;;;;;;;4.90;4.40;;;27.80;63.20;;;28.56;38.92;98764.63;5044841;27;124594;-75
2022/07/23 09:50:06;;;;;;;8.27;4.80;;;27.80;62.30;;;28.61;38.87;98766.97;5042022;27;122810;-75
2022/07/23 09:52:35;;;;;;;5.50;4.90;;;27.90;62.10;;;28.65;38.65;98759.19;5044335;27;109232;-75
2022/07/23 09:55:06;;;;;;;5.13;4.50;;;28.00;62.00;;;28.69;38.33;98770.47;5040758;27;109052;-75
2022/07/23 09:57:33;;;;;;;6.57;5.20;;;28.00;61.60;;;28.72;38.22;98772.44;5042171;27;124169;-75
2022/07/23 10:00:10;;;;;;;7.30;5.13;;;28.00;61.30;;;28.73;38.28;98776.91;5041706;27;123768;-74
2022/07/23 10:02:38;;;;;;;6.40;5.23;;;28.10;61.30;;;28.73;38.35;98777.72;5035286;27;110631;-75
2022/07/23 10:05:06;;;;;;;5.40;4.90;;;28.10;61.20;;;28.74;38.33;98773.63;5041264;27;109884;-75
2022/07/23 10:07:37;;;;;;;5.73;4.97;;;28.10;61.10;;;28.75;38.26;98771.59;5054044;27;124081;-75
2022/07/23 10:10:05;;;;;;;5.90;4.70;;;28.10;61.10;;;28.79;38.27;98766.63;5034689;27;124007;-75
2022/07/23 10:15:17;;;;;;;5.17;4.67;;;28.20;60.20;;;28.78;37.66;98774.38;5045522;27;109592;-75
2022/07/23 10:17:43;;;;;;;5.60;5.10;;;28.20;60.10;;;28.83;37.29;98773.84;5037523;27;123372;-75